Time;durP1;ratioP1;P1;durP2;ratioP2;P2;SDS_P1;SDS_P2;PMS_P1;PMS_P2;Temp;Humidity;BMP_temperature;BMP_pressure;BME280_temperature;BME280_humidity;BME280_pressure;Samples;Min_cycle;Max_cycle;Signal;HPM_P1;HPM_P2
2021/12/25 00:00:55;;;;;;;27.58;15.68;;;358.40;1894.40;;;;;;5031873;28;20136;-60
2021/12/25 00:03:21;;;;;;;6.03;2.97;;;358.40;1868.80;;;;;;5031982;28;20038;-60
2021/12/25 00:05:52;;;;;;;15.38;8.25;;;358.40;1894.40;;;;;;5032005;28;20029;-59
2021/12/25 00:08:21;;;;;;;19.98;11.25;;;358.50;1894.40;;;;;;5031746;28;20040;-59
2021/12/25 00:10:47;;;;;;;16.40;9.45;;;358.40;1894.40;;;;;;5031779;28;20388;-59
2021/12/25 00:13:15;;;;;;;14.52;8.90;;;358.50;1868.80;;;;;;5031932;28;20034;-61
2021/12/25 00:15:42;;;;;;;11.18;7.80;;;358.60;1868.80;;;;;;5032143;28;20030;-59
2021/12/25 00:18:08;;;;;;;25.65;13.75;;;358.50;1868.80;;;;;;5031626;28;20021;-60
2021/12/25 00:20:34;;;;;;;6.30;3.55;;;358.60;1868.80;;;;;;5031600;28;20053;-60
2021/12/25 00:23:04;;;;;;;7.05;4.20;;;358.50;1868.80;;;;;;5031839;28;20114;-60
2021/12/25 00:25:33;;;;;;;2.50;1.45;;;358.50;1894.40;;;;;;5031685;28;20023;-60
2021/12/25 00:28:18;;;;;;;5.97;3.30;;;358.50;1894.40;;;;;;5031511;28;20035;-59
2021/12/25 00:36:19;;;;;;;5.38;2.25;;;358.40;1894.40;;;;;;5034082;28;20025;-59
2021/12/25 00:38:47;;;;;;;55.47;27.73;;;358.40;1920.00;;;;;;5039226;28;20076;-60
2021/12/25 00:41:17;;;;;;;10.70;5.97;;;358.40;1894.40;;;;;;5031365;28;20040;-59
2021/12/25 00:43:43;;;;;;;6.32;3.65;;;358.50;1894.40;;;;;;5031431;28;20101;-60
2021/12/25 00:46:09;;;;;;;19.42;8.52;;;358.50;1894.40;;;;;;5030356;28;20130;-60
2021/12/25 00:48:35;;;;;;;18.05;9.73;;;358.50;1894.40;;;;;;5033711;28;20499;-60
2021/12/25 00:51:01;;;;;;;50.08;25.15;;;358.60;1894.40;;;;;;5051421;28;20439;-60
2021/12/25 00:53:27;;;;;;;23.77;12.02;;;358.60;1894.40;;;;;;5051132;28;20078;-60
2021/12/25 00:55:53;;;;;;;37.08;20.65;;;358.60;1894.40;;;;;;5051203;28;20152;-59
2021/12/25 00:58:18;;;;;;;38.35;18.88;;;358.60;1868.80;;;;;;5051137;28;20025;-59
2021/12/25 01:00:44;;;;;;;83.15;39.58;;;358.60;1868.80;;;;;;5050336;28;20045;-60
2021/12/25 01:03:10;;;;;;;33.88;16.27;;;358.70;1868.80;;;;;;5050841;28;20059;-60
2021/12/25 01:05:36;;;;;;;6.32;3.20;;;358.70;1894.40;;;;;;5050738;28;20028;-61
2021/12/25 01:08:03;;;;;;;13.05;8.25;;;358.70;1868.80;;;;;;5050978;28;20087;-60
2021/12/25 01:10:29;;;;;;;19.58;11.82;;;358.70;1894.40;;;;;;5043052;28;20028;-60
2021/12/25 01:36:59;;;;;;;9.35;5.32;;;358.70;1945.60;;;;;;5008410;28;20477;-59
2021/12/25 01:49:55;;;;;;;10.85;5.97;;;358.50;1971.20;;;;;;5008389;28;20112;-59
2021/12/25 01:52:26;;;;;;;5.25;2.95;;;358.50;1971.20;;;;;;5008379;28;20022;-60
2021/12/25 01:54:58;;;;;;;25.40;14.98;;;358.50;2022.40;;;;;;4988082;28;20042;-59
2021/12/25 01:57:24;;;;;;;9.13;6.32;;;358.60;2022.40;;;;;;4969387;28;20063;-59
2021/12/25 01:59:50;;;;;;;8.23;5.43;;;358.50;1996.80;;;;;;4969284;28;20062;-59
2021/12/25 02:02:16;;;;;;;13.75;8.02;;;358.50;1996.80;;;;;;4993879;28;20499;-60
2021/12/25 02:04:42;;;;;;;43.65;24.77;;;358.50;2073.60;;;;;;5030343;28;20021;-61
2021/12/25 02:07:08;;;;;;;9.90;6.53;;;358.40;2099.20;;;;;;5029775;28;20510;-60
2021/12/25 02:09:34;;;;;;;92.05;57.00;;;358.50;2022.40;;;;;;5029888;28;20033;-60
2021/12/25 02:12:00;;;;;;;8.18;4.97;;;358.50;2073.60;;;;;;5030065;28;20026;-60
2021/12/25 02:14:28;;;;;;;9.18;5.85;;;358.60;2022.40;;;;;;5030121;28;20403;-59
2021/12/25 02:17:00;;;;;;;7.95;2.20;;;358.70;1996.80;;;;;;5029828;28;20021;-60
2021/12/25 02:19:44;;;;;;;6.00;3.92;;;358.60;1971.20;;;;;;5029991;28;20021;-60
2021/12/25 02:22:11;;;;;;;8.57;4.55;;;358.60;1996.80;;;;;;5029967;28;20040;-60
2021/12/25 02:24:37;;;;;;;37.40;21.30;;;358.60;1971.20;;;;;;5029795;28;20115;-60
2021/12/25 02:27:05;;;;;;;15.07;8.98;;;358.50;1996.80;;;;;;5029967;28;20544;-60
2021/12/25 02:29:31;;;;;;;39.05;22.85;;;358.60;1971.20;;;;;;5029894;28;20057;-59
2021/12/25 02:31:59;;;;;;;30.40;18.10;;;358.60;1996.80;;;;;;5029621;28;20461;-60
2021/12/25 02:34:24;;;;;;;71.90;41.35;;;358.60;1971.20;;;;;;5029571;28;20021;-60
2021/12/25 02:36:50;;;;;;;25.33;16.42;;;358.60;1996.80;;;;;;5029805;28;20088;-59
2021/12/25 02:39:16;;;;;;;4.88;2.67;;;358.60;1996.80;;;;;;5029682;28;20523;-59
2021/12/25 02:41:43;;;;;;;23.73;14.13;;;358.70;1971.20;;;;;;5029760;28;20116;-59
2021/12/25 02:44:09;;;;;;;16.17;9.90;;;358.60;2022.40;;;;;;5029801;28;20036;-59
2021/12/25 02:46:35;;;;;;;11.35;8.68;;;358.40;2124.80;;;;;;5029524;28;20030;-59
2021/12/25 02:49:01;;;;;;;23.80;16.85;;;358.40;2150.40;;;;;;5029663;28;20030;-59
2021/12/25 02:51:27;;;;;;;53.85;33.03;;;358.40;2176.00;;;;;;5029801;28;20026;-59
2021/12/25 02:53:53;;;;;;;31.48;21.98;;;358.40;2227.20;;;;;;5029723;28;20108;-60
2021/12/25 02:56:19;;;;;;;42.30;25.48;;;358.40;2252.80;;;;;;5029693;28;20041;-59
2021/12/25 02:58:45;;;;;;;31.02;17.65;;;333.60;2278.40;;;;;;5029378;28;20026;-60
2021/12/25 03:01:16;;;;;;;13.35;9.20;;;333.70;2150.40;;;;;;5029135;28;20065;-60
2021/12/25 03:03:43;;;;;;;16.02;9.55;;;358.40;2176.00;;;;;;5029491;28;20033;-60
2021/12/25 03:06:09;;;;;;;30.63;17.25;;;333.70;2278.40;;;;;;5029287;28;20055;-59
2021/12/25 03:08:35;;;;;;;32.70;18.85;;;333.70;2201.60;;;;;;5030488;28;20115;-59
2021/12/25 03:11:06;;;;;;;10.77;6.85;;;333.70;2124.80;;;;;;5033181;28;20376;-59
2021/12/25 03:16:18;;;;;;;21.75;13.30;;;358.40;2099.20;;;;;;5050516;28;20033;-60
2021/12/25 03:18:48;;;;;;;52.47;28.73;;;358.50;2073.60;;;;;;5050570;28;20390;-60
2021/12/25 03:21:17;;;;;;;39.47;22.75;;;358.50;2099.20;;;;;;5050370;28;20483;-59
2021/12/25 03:23:44;;;;;;;23.60;13.95;;;358.40;2099.20;;;;;;5050672;28;20102;-59
2021/12/25 03:26:10;;;;;;;20.17;13.38;;;358.50;2073.60;;;;;;5050565;28;20021;-60
2021/12/25 03:28:40;;;;;;;32.72;18.60;;;358.40;2073.60;;;;;;5050418;28;20033;-60
2021/12/25 03:31:15;;;;;;;49.35;29.15;;;358.40;2099.20;;;;;;5050224;28;20491;-59
2021/12/25 03:33:42;;;;;;;16.17;11.25;;;358.50;2124.80;;;;;;5050331;28;20045;-60
2021/12/25 03:36:08;;;;;;;9.73;5.78;;;358.40;2150.40;;;;;;5050197;28;20027;-59
2021/12/25 03:38:34;;;;;;;12.02;7.05;;;358.40;2176.00;;;;;;5050056;28;20074;-60
2021/12/25 03:41:01;;;;;;;32.78;17.33;;;358.40;2150.40;;;;;;5050277;28;20053;-60
2021/12/25 03:43:28;;;;;;;5.97;2.33;;;358.40;2150.40;;;;;;5050104;28;20033;-60
2021/12/25 03:45:55;;;;;;;10.45;5.57;;;358.40;2150.40;;;;;;5050058;28;20128;-60
2021/12/25 03:59:02;;;;;;;9.75;5.93;;;333.70;2329.60;;;;;;5032353;28;20024;-60
2021/12/25 04:01:44;;;;;;;46.58;29.25;;;333.70;2329.60;;;;;;5031727;28;20403;-60
2021/12/25 04:06:48;;;;;;;26.80;16.15;;;333.60;2329.60;;;;;;5031780;28;20036;-60
2021/12/25 04:09:23;;;;;;;32.65;20.98;;;333.60;2329.60;;;;;;5031932;28;20032;-60
2021/12/25 04:11:49;;;;;;;16.48;8.77;;;333.60;2329.60;;;;;;5031878;28;20036;-59
2021/12/25 04:14:16;;;;;;;36.22;21.58;;;333.60;2329.60;;;;;;5031626;28;20060;-60
2021/12/25 04:16:41;;;;;;;35.53;23.40;;;333.50;2329.60;;;;;;5031795;28;20468;-59
2021/12/25 04:19:07;;;;;;;18.80;11.63;;;333.50;2329.60;;;;;;5031367;28;20117;-61
2021/12/25 04:21:35;;;;;;;15.13;8.65;;;333.50;2329.60;;;;;;5031678;28;20037;-60
2021/12/25 04:24:01;;;;;;;10.50;6.22;;;333.40;2329.60;;;;;;5031787;28;20407;-59
2021/12/25 04:26:27;;;;;;;41.25;26.65;;;333.40;2329.60;;;;;;5031548;28;20033;-59
2021/12/25 05:04:07;;;;;;;67.07;46.80;;;332.90;2329.60;;;;;;5030891;28;20028;-60
2021/12/25 05:06:33;;;;;;;55.60;43.15;;;332.90;2329.60;;;;;;5030955;28;20406;-59
2021/12/25 05:08:58;;;;;;;65.97;50.65;;;332.90;2329.60;;;;;;5030790;28;20104;-59
2021/12/25 05:11:24;;;;;;;68.50;51.90;;;332.80;2329.60;;;;;;5030825;28;20460;-61
2021/12/25 05:13:50;;;;;;;74.03;51.15;;;332.90;2329.60;;;;;;5043622;28;20027;-58
2021/12/25 05:16:17;;;;;;;47.40;32.75;;;332.80;2329.60;;;;;;5030484;28;20383;-59
2021/12/25 05:18:43;;;;;;;43.72;30.38;;;308.10;2304.00;;;;;;5030721;28;20017;-60
2021/12/25 05:21:09;;;;;;;42.72;30.55;;;308.00;2304.00;;;;;;5030518;28;20108;-59
2021/12/25 05:23:36;;;;;;;46.50;30.90;;;308.00;2304.00;;;;;;5030444;28;20034;-60
2021/12/25 05:26:03;;;;;;;47.30;31.65;;;308.10;2304.00;;;;;;5030667;28;20032;-59
2021/12/25 05:28:38;;;;;;;82.07;55.05;;;332.80;2329.60;;;;;;5030509;28;20025;-59
2021/12/25 05:31:04;;;;;;;74.78;53.20;;;332.90;2329.60;;;;;;5030054;28;20061;-59
2021/12/25 05:33:30;;;;;;;78.70;54.22;;;332.80;2329.60;;;;;;5030463;28;20028;-60
2021/12/25 05:35:56;;;;;;;73.25;52.58;;;332.80;2329.60;;;;;;5030395;28;20025;-61
2021/12/25 05:38:22;;;;;;;62.53;37.80;;;332.80;2329.60;;;;;;5030465;28;20403;-59
2021/12/25 05:40:48;;;;;;;31.65;22.77;;;332.80;2329.60;;;;;;5030067;28;20021;-60
2021/12/25 05:43:15;;;;;;;27.52;18.92;;;333.00;2329.60;;;;;;5030378;28;20029;-60
2021/12/25 05:45:41;;;;;;;42.38;27.38;;;333.00;2329.60;;;;;;5030435;28;20373;-60
2021/12/25 05:48:08;;;;;;;21.33;17.23;;;333.00;2329.60;;;;;;5030143;28;20033;-55
2021/12/25 05:50:35;;;;;;;26.05;17.85;;;332.90;2329.60;;;;;;5030002;28;20037;-55
2021/12/25 05:53:00;;;;;;;25.52;19.02;;;333.00;2329.60;;;;;;5030186;28;20365;-56
2021/12/25 05:55:27;;;;;;;59.00;35.03;;;333.10;2329.60;;;;;;5030338;28;20071;-55
2021/12/25 05:57:53;;;;;;;16.52;9.70;;;333.10;2329.60;;;;;;5030199;28;20025;-55
2021/12/25 06:00:20;;;;;;;38.65;23.88;;;333.20;2329.60;;;;;;5029708;28;20181;-55
2021/12/25 06:02:46;;;;;;;22.23;12.88;;;333.30;2329.60;;;;;;5029966;28;20395;-56
2021/12/25 06:05:13;;;;;;;20.92;13.60;;;333.40;2329.60;;;;;;5029970;28;20075;-55
2021/12/25 06:07:39;;;;;;;24.95;17.70;;;333.60;2329.60;;;;;;5029912;28;20121;-55
2021/12/25 06:10:10;;;;;;;17.45;10.68;;;333.50;2329.60;;;;;;5029861;28;20097;-56
2021/12/25 06:12:41;;;;;;;16.90;11.15;;;333.60;2329.60;;;;;;5030123;28;20428;-56
2021/12/25 06:15:13;;;;;;;12.90;8.75;;;333.50;2329.60;;;;;;5030010;28;20037;-55
2021/12/25 06:17:39;;;;;;;12.48;8.15;;;333.60;2329.60;;;;;;5029988;28;20092;-55
2021/12/25 06:20:07;;;;;;;8.02;6.10;;;333.60;2329.60;;;;;;5029760;28;20063;-56
2021/12/25 06:22:33;;;;;;;14.85;8.25;;;333.60;2329.60;;;;;;5029710;28;20498;-55
2021/12/25 06:24:59;;;;;;;202.25;141.38;;;333.70;2329.60;;;;;;5029755;28;20018;-55
2021/12/25 06:27:24;;;;;;;106.13;73.00;;;333.20;2329.60;;;;;;5029976;28;20522;-55
2021/12/25 06:29:51;;;;;;;78.68;56.30;;;308.10;2304.00;;;;;;5029898;28;20476;-56
2021/12/25 06:32:17;;;;;;;75.75;52.85;;;308.00;2304.00;;;;;;5029528;28;20455;-56
2021/12/25 06:34:44;;;;;;;94.60;68.93;;;308.00;2304.00;;;;;;5029729;28;20064;-57
2021/12/25 06:37:10;;;;;;;54.35;35.92;;;308.10;2304.00;;;;;;5029836;28;20053;-65
2021/12/25 06:39:36;;;;;;;99.75;68.57;;;308.10;2304.00;;;;;;5029535;28;20025;-56
2021/12/25 06:42:03;;;;;;;95.90;62.88;;;332.90;2329.60;;;;;;5029595;28;20044;-56
2021/12/25 06:44:29;;;;;;;27.58;19.55;;;333.00;2329.60;;;;;;5032249;28;20476;-55
2021/12/25 06:46:55;;;;;;;47.28;27.42;;;333.00;2329.60;;;;;;5033387;28;20100;-55
2021/12/25 06:49:22;;;;;;;26.75;18.95;;;333.20;2329.60;;;;;;5033692;28;20017;-55
2021/12/25 06:51:49;;;;;;;54.28;35.58;;;333.20;2329.60;;;;;;5033329;28;20021;-56
2021/12/25 06:54:15;;;;;;;25.98;15.05;;;333.20;2329.60;;;;;;5033212;28;20025;-56
2021/12/25 06:56:43;;;;;;;13.48;9.88;;;333.20;2329.60;;;;;;5033472;28;20494;-56
2021/12/25 06:59:09;;;;;;;47.50;32.28;;;333.30;2329.60;;;;;;5033318;28;20104;-55
2021/12/25 07:01:35;;;;;;;23.30;17.92;;;333.50;2329.60;;;;;;5032765;28;20141;-56
2021/12/25 07:04:01;;;;;;;27.15;18.83;;;333.60;2329.60;;;;;;5033174;28;20025;-56
2021/12/25 07:06:27;;;;;;;23.15;16.45;;;333.60;2329.60;;;;;;5033060;28;20095;-56
2021/12/25 07:08:53;;;;;;;24.80;18.05;;;333.50;2329.60;;;;;;5033120;28;20021;-55
2021/12/25 07:11:19;;;;;;;35.70;28.35;;;333.40;2329.60;;;;;;5032868;28;20053;-55
2021/12/25 07:13:46;;;;;;;31.17;25.30;;;333.60;2329.60;;;;;;5032898;28;20472;-55
2021/12/25 07:16:13;;;;;;;33.35;23.77;;;333.70;2329.60;;;;;;5033192;28;20033;-55
2021/12/25 07:18:39;;;;;;;20.75;16.83;;;333.70;2329.60;;;;;;5032709;28;20018;-55
2021/12/25 07:21:05;;;;;;;52.20;38.42;;;333.70;2329.60;;;;;;5032649;28;20026;-55
2021/12/25 07:23:32;;;;;;;28.40;21.40;;;333.70;2329.60;;;;;;5032810;28;20061;-56
2021/12/25 07:25:58;;;;;;;19.75;13.90;;;358.40;2329.60;;;;;;5032853;28;20021;-56
2021/12/25 07:28:24;;;;;;;318.88;221.18;;;358.40;2329.60;;;;;;5032702;28;20511;-55
2021/12/25 07:30:50;;;;;;;153.75;109.20;;;358.60;2329.60;;;;;;5032756;28;20404;-56
2021/12/25 07:33:17;;;;;;;87.47;63.13;;;358.60;2329.60;;;;;;5032516;28;20134;-56
2021/12/25 07:35:43;;;;;;;119.68;98.70;;;358.70;2329.60;;;;;;5032675;28;20384;-55
2021/12/25 07:38:09;;;;;;;76.55;59.08;;;358.70;2329.60;;;;;;5032246;28;20026;-55
2021/12/25 07:40:35;;;;;;;214.73;161.63;;;358.70;2329.60;;;;;;5032344;28;20029;-56
2021/12/25 07:43:01;;;;;;;327.75;233.23;;;358.80;2329.60;;;;;;5032328;28;20040;-56
2021/12/25 07:45:27;;;;;;;230.30;163.68;;;358.80;2329.60;;;;;;5032371;28;20040;-65
2021/12/25 07:47:59;;;;;;;72.50;57.08;;;358.80;2329.60;;;;;;5032449;28;20033;-56
2021/12/25 07:50:27;;;;;;;72.53;51.40;;;358.80;2329.60;;;;;;5032259;28;20112;-62
2021/12/25 07:52:53;;;;;;;59.75;44.65;;;358.80;2329.60;;;;;;5032215;28;20091;-56
2021/12/25 07:55:19;;;;;;;70.18;55.40;;;358.90;2329.60;;;;;;5031695;28;20534;-56
2021/12/25 07:57:45;;;;;;;34.20;26.10;;;359.00;2329.60;;;;;;5032095;28;20034;-56
2021/12/25 08:00:12;;;;;;;46.80;40.03;;;359.00;2329.60;;;;;;5032246;28;20072;-55
2021/12/25 08:02:39;;;;;;;20.52;16.33;;;359.00;2329.60;;;;;;5031591;28;20561;-56
2021/12/25 08:05:05;;;;;;;26.42;23.65;;;359.10;2329.60;;;;;;5031930;28;20217;-56
2021/12/25 08:07:31;;;;;;;16.67;13.48;;;359.10;2329.60;;;;;;5032080;28;20028;-55
2021/12/25 08:10:11;;;;;;;15.15;13.38;;;359.10;2329.60;;;;;;5031979;28;20443;-56
2021/12/25 08:12:37;;;;;;;57.38;51.75;;;359.10;2329.60;;;;;;5031803;28;20032;-56
2021/12/25 08:15:03;;;;;;;22.30;18.63;;;359.10;2329.60;;;;;;5032029;28;20036;-65
2021/12/25 08:17:28;;;;;;;16.83;8.82;;;359.10;2329.60;;;;;;5031816;28;20021;-56
2021/12/25 08:19:54;;;;;;;23.35;19.92;;;359.20;2329.60;;;;;;5031828;28;20087;-56
2021/12/25 08:22:20;;;;;;;22.20;19.95;;;359.20;2329.60;;;;;;5031655;28;20042;-56
2021/12/25 08:24:46;;;;;;;12.02;10.65;;;359.20;2329.60;;;;;;5031880;28;20022;-64
2021/12/25 08:27:12;;;;;;;18.25;11.65;;;359.20;2329.60;;;;;;5031833;28;20108;-56
2021/12/25 08:29:38;;;;;;;18.02;16.13;;;359.10;2329.60;;;;;;5031532;28;20025;-63
2021/12/25 08:32:04;;;;;;;23.58;18.85;;;359.10;2329.60;;;;;;5030671;28;20662;-55
2021/12/25 08:34:30;;;;;;;29.63;22.13;;;359.20;2329.60;;;;;;5031522;28;20025;-55
2021/12/25 08:36:56;;;;;;;42.53;31.88;;;359.30;2329.60;;;;;;5031327;28;20064;-56
2021/12/25 08:39:22;;;;;;;29.60;23.25;;;359.30;2329.60;;;;;;5031470;28;20084;-56
2021/12/25 08:41:47;;;;;;;40.70;30.13;;;359.30;2329.60;;;;;;5031203;28;20044;-56
2021/12/25 08:44:32;;;;;;;69.47;53.55;;;359.30;2329.60;;;;;;5031397;28;20034;-56
2021/12/25 08:46:59;;;;;;;26.00;20.25;;;384.10;2278.40;;;;;;5031192;28;20107;-56
2021/12/25 08:49:28;;;;;;;50.05;41.13;;;384.10;2252.80;;;;;;5030977;28;20028;-57
2021/12/25 08:51:56;;;;;;;37.72;29.55;;;384.30;2201.60;;;;;;5031166;28;20527;-56
2021/12/25 08:54:22;;;;;;;40.72;34.58;;;384.30;2227.20;;;;;;5031114;28;20372;-56
2021/12/25 08:56:48;;;;;;;26.25;20.08;;;384.50;2176.00;;;;;;5031752;28;20029;-56
2021/12/25 08:59:14;;;;;;;51.03;45.60;;;384.60;2099.20;;;;;;5045202;28;20090;-56
2021/12/25 09:01:40;;;;;;;20.58;15.77;;;384.70;2124.80;;;;;;5044633;28;20076;-62
2021/12/25 09:04:06;;;;;;;17.15;13.43;;;384.80;2124.80;;;;;;5047437;28;20403;-56
2021/12/25 09:06:33;;;;;;;25.15;19.45;;;384.80;2124.80;;;;;;5042786;28;20022;-56
2021/12/25 09:08:59;;;;;;;44.38;38.20;;;384.90;2099.20;;;;;;5038010;28;20021;-56
2021/12/25 09:11:25;;;;;;;35.83;26.20;;;384.90;2073.60;;;;;;5050582;28;20545;-56
2021/12/25 09:13:51;;;;;;;13.13;11.68;;;384.90;2073.60;;;;;;5050826;28;20083;-56
2021/12/25 09:16:17;;;;;;;15.85;9.73;;;409.60;2022.40;;;;;;5050600;28;20057;-56
2021/12/25 09:18:43;;;;;;;240.70;172.50;;;384.90;1996.80;;;;;;5050579;28;20028;-62
2021/12/25 09:21:10;;;;;;;58.72;42.75;;;409.60;2048.00;;;;;;5050131;28;20033;-64
2021/12/25 09:23:36;;;;;;;224.15;192.50;;;409.60;2099.20;;;;;;5050332;28;20028;-56
2021/12/25 09:26:02;;;;;;;30.38;23.67;;;384.80;2124.80;;;;;;5049115;28;20029;-57
2021/12/25 09:28:28;;;;;;;49.80;37.42;;;409.60;1996.80;;;;;;5050385;28;20108;-56
2021/12/25 09:30:55;;;;;;;78.25;59.72;;;384.90;1996.80;;;;;;5050261;28;20601;-55
2021/12/25 09:33:21;;;;;;;71.35;54.25;;;384.70;2073.60;;;;;;5050338;28;20128;-56
2021/12/25 09:35:47;;;;;;;62.97;46.72;;;384.80;2099.20;;;;;;5049966;28;20053;-56
2021/12/25 09:38:12;;;;;;;50.97;37.03;;;384.90;2048.00;;;;;;5050460;28;20029;-55
2021/12/25 09:40:38;;;;;;;37.80;27.20;;;384.90;1996.80;;;;;;5050029;28;20029;-56
2021/12/25 09:43:04;;;;;;;15.18;10.88;;;384.90;1971.20;;;;;;5050257;28;20241;-56
2021/12/25 09:45:30;;;;;;;18.58;10.68;;;384.90;1971.20;;;;;;5050129;28;20021;-56
2021/12/25 09:47:56;;;;;;;31.33;19.92;;;384.90;2048.00;;;;;;5050123;28;20033;-56
2021/12/25 09:50:21;;;;;;;24.80;14.57;;;409.70;2022.40;;;;;;5050135;28;20056;-56
2021/12/25 09:52:47;;;;;;;13.55;9.52;;;384.90;1996.80;;;;;;5050093;28;20028;-56
2021/12/25 09:55:15;;;;;;;43.50;32.08;;;409.60;2048.00;;;;;;5050144;28;20100;-56
2021/12/25 09:57:40;;;;;;;33.40;24.73;;;409.60;2073.60;;;;;;5049991;28;20033;-56
2021/12/25 10:00:13;;;;;;;62.42;43.80;;;384.90;1996.80;;;;;;5049830;28;20028;-56
2021/12/25 10:02:56;;;;;;;108.10;75.28;;;409.70;2099.20;;;;;;5049546;28;20049;-56
2021/12/25 10:05:25;;;;;;;13.20;7.05;;;409.70;2022.40;;;;;;5050021;28;20106;-56
2021/12/25 10:08:11;;;;;;;9.15;6.53;;;409.60;1971.20;;;;;;5049906;28;20383;-55
2021/12/25 10:11:02;;;;;;;32.05;27.30;;;409.60;1971.20;;;;;;5049662;28;20028;-56
2021/12/25 10:13:36;;;;;;;11.15;6.13;;;409.60;1971.20;;;;;;5049729;28;20029;-56
2021/12/25 10:16:24;;;;;;;12.57;11.27;;;409.60;1971.20;;;;;;5049864;28;20459;-56
2021/12/25 10:18:52;;;;;;;19.38;16.60;;;409.60;1996.80;;;;;;5053355;28;20108;-56
2021/12/25 10:21:26;;;;;;;11.30;7.05;;;409.60;1971.20;;;;;;5053635;28;20076;-56
2021/12/25 10:24:10;;;;;;;8.88;6.13;;;409.60;1971.20;;;;;;5053953;28;20028;-67
2021/12/25 10:26:38;;;;;;;9.60;7.93;;;409.60;1971.20;;;;;;5053753;28;20025;-67
2021/12/25 10:29:25;;;;;;;6.78;4.32;;;409.70;1996.80;;;;;;5053894;28;20023;-64
2021/12/25 10:31:54;;;;;;;13.25;11.82;;;409.70;1971.20;;;;;;5053724;28;20029;-56
2021/12/25 10:34:23;;;;;;;16.17;11.48;;;409.70;1971.20;;;;;;5053700;28;20422;-57
2021/12/25 10:36:49;;;;;;;24.13;19.38;;;409.70;1971.20;;;;;;5053569;28;20025;-56
2021/12/25 10:39:28;;;;;;;5.30;3.88;;;409.70;1971.20;;;;;;5053762;28;20529;-56
2021/12/25 10:42:02;;;;;;;14.93;11.32;;;409.90;1971.20;;;;;;5053474;28;20044;-56
2021/12/25 10:44:37;;;;;;;10.05;8.98;;;409.90;1971.20;;;;;;5053302;28;20100;-66
2021/12/25 10:47:12;;;;;;;6.22;4.65;;;409.90;1945.60;;;;;;5053546;28;20037;-55
2021/12/25 10:49:47;;;;;;;8.75;5.72;;;410.00;1945.60;;;;;;5053293;28;20538;-59
2021/12/25 10:52:16;;;;;;;16.13;12.55;;;410.20;1920.00;;;;;;5053485;28;20029;-55
2021/12/25 10:54:46;;;;;;;23.00;17.85;;;410.10;1920.00;;;;;;5053457;28;20021;-56
2021/12/25 10:57:32;;;;;;;16.65;12.18;;;410.10;1920.00;;;;;;5053170;28;20391;-56
2021/12/25 10:59:59;;;;;;;14.15;9.52;;;410.10;1868.80;;;;;;5052569;28;20025;-55
2021/12/25 11:02:30;;;;;;;13.23;9.80;;;410.30;1894.40;;;;;;5053086;28;20056;-55
2021/12/25 11:04:57;;;;;;;14.88;9.85;;;410.50;1868.80;;;;;;5053147;28;20071;-56
2021/12/25 11:07:23;;;;;;;17.13;12.80;;;410.50;1868.80;;;;;;5053280;28;20429;-61
2021/12/25 11:10:07;;;;;;;16.02;11.35;;;435.20;1868.80;;;;;;5052913;28;20021;-55
2021/12/25 11:12:34;;;;;;;58.50;44.00;;;435.20;1868.80;;;;;;5053012;28;20036;-68
2021/12/25 11:15:19;;;;;;;13.30;10.32;;;435.20;1868.80;;;;;;5053371;28;20013;-57
2021/12/25 11:17:50;;;;;;;7.22;4.22;;;410.50;1868.80;;;;;;5052988;28;20068;-68
2021/12/25 11:20:21;;;;;;;26.15;19.33;;;410.40;1920.00;;;;;;5052696;28;20025;-56
2021/12/25 11:22:53;;;;;;;70.00;48.47;;;410.30;1920.00;;;;;;5043239;28;20033;-54
2021/12/25 11:25:23;;;;;;;68.22;55.10;;;410.30;1920.00;;;;;;5041579;28;20082;-57
2021/12/25 11:27:50;;;;;;;32.95;29.35;;;410.30;1920.00;;;;;;5044061;28;20025;-55
2021/12/25 11:30:18;;;;;;;37.80;26.35;;;410.30;1920.00;;;;;;5051695;28;20085;-56
2021/12/25 11:32:45;;;;;;;9.60;5.60;;;410.30;1945.60;;;;;;5052752;28;20025;-64
2021/12/25 11:35:11;;;;;;;13.48;10.07;;;410.10;1945.60;;;;;;5052580;28;20028;-55
2021/12/25 11:37:37;;;;;;;15.15;6.95;;;410.00;1945.60;;;;;;5052332;28;20047;-55
2021/12/25 11:40:06;;;;;;;10.43;7.93;;;410.00;1945.60;;;;;;5052569;28;20028;-55
2021/12/25 11:42:32;;;;;;;5.60;4.45;;;410.00;1945.60;;;;;;5052551;28;20048;-55
2021/12/25 11:45:17;;;;;;;10.50;4.57;;;410.10;1920.00;;;;;;5052384;28;20475;-57
2021/12/25 11:47:47;;;;;;;42.85;32.70;;;410.20;1894.40;;;;;;5052396;28;20029;-55
2021/12/25 11:50:13;;;;;;;20.27;16.10;;;410.20;1894.40;;;;;;5052339;28;20017;-55
2021/12/25 11:52:48;;;;;;;25.95;19.65;;;410.30;1868.80;;;;;;5052232;28;20471;-56
2021/12/25 11:58:40;;;;;;;22.25;13.32;;;410.50;1843.20;;;;;;5046124;28;20514;-55
2021/12/25 12:01:33;;;;;;;5.18;3.42;;;435.20;1868.80;;;;;;5051114;28;20041;-56
2021/12/25 12:04:05;;;;;;;10.93;7.43;;;435.20;1792.00;;;;;;5051878;28;20025;-55
2021/12/25 12:07:18;;;;;;;10.02;7.63;;;435.30;1843.20;;;;;;5051901;28;20075;-56
2021/12/25 12:09:46;;;;;;;12.85;10.35;;;435.20;1843.20;;;;;;5049785;28;20029;-56
2021/12/25 12:12:24;;;;;;;18.05;11.00;;;410.40;1868.80;;;;;;5049702;28;20060;-55
2021/12/25 12:15:15;;;;;;;11.50;7.72;;;410.40;1894.40;;;;;;5049747;28;20523;-56
2021/12/25 12:17:43;;;;;;;18.30;12.63;;;410.50;1843.20;;;;;;5049617;28;20415;-57
2021/12/25 12:20:16;;;;;;;7.50;5.07;;;410.30;1868.80;;;;;;5046961;28;20475;-56
2021/12/25 12:22:55;;;;;;;12.27;8.25;;;410.30;1868.80;;;;;;5037096;28;20075;-55
2021/12/25 12:25:31;;;;;;;7.07;5.05;;;410.30;1843.20;;;;;;5037038;28;20076;-55
2021/12/25 12:28:01;;;;;;;8.35;5.63;;;410.30;1868.80;;;;;;5036765;28;20045;-56
2021/12/25 12:30:46;;;;;;;7.95;4.55;;;410.20;1843.20;;;;;;5038088;28;20029;-56
2021/12/25 12:33:14;;;;;;;4.93;3.10;;;410.20;1868.80;;;;;;5039808;28;20472;-56
2021/12/25 12:35:43;;;;;;;10.77;6.82;;;410.20;1817.60;;;;;;5036918;28;20031;-54
2021/12/25 12:38:39;;;;;;;12.18;8.98;;;410.20;1843.20;;;;;;5037885;28;20459;-56
2021/12/25 12:41:20;;;;;;;8.63;5.90;;;410.20;1843.20;;;;;;5037275;28;20491;-56
2021/12/25 12:44:06;;;;;;;5.82;3.78;;;410.20;1843.20;;;;;;5039214;28;20025;-55
2021/12/25 12:46:50;;;;;;;9.20;5.50;;;410.20;1843.20;;;;;;5030403;28;20376;-55
2021/12/25 12:49:20;;;;;;;55.70;39.30;;;410.20;1817.60;;;;;;5040645;28;20036;-55
2021/12/25 12:52:24;;;;;;;23.40;18.10;;;410.30;1817.60;;;;;;5031003;28;20040;-55
2021/12/25 12:54:52;;;;;;;147.20;117.78;;;410.30;1817.60;;;;;;5031229;28;20026;-55
2021/12/25 12:57:34;;;;;;;29.23;22.20;;;410.30;1792.00;;;;;;5030858;28;20383;-55
2021/12/25 13:00:00;;;;;;;163.52;121.80;;;410.30;1817.60;;;;;;5030886;28;20061;-56
2021/12/25 13:02:31;;;;;;;186.23;143.02;;;410.30;1792.00;;;;;;5030691;28;20080;-56
2021/12/25 13:05:01;;;;;;;12.52;9.48;;;410.40;1817.60;;;;;;5030959;28;20053;-56
2021/12/25 13:07:30;;;;;;;9.10;5.25;;;410.50;1792.00;;;;;;5032864;28;20068;-55
2021/12/25 13:10:06;;;;;;;187.27;153.30;;;410.50;1792.00;;;;;;5048021;28;20064;-55
2021/12/25 13:12:43;;;;;;;18.40;13.93;;;435.20;1792.00;;;;;;5050882;28;20056;-56
2021/12/25 13:15:19;;;;;;;14.30;12.80;;;435.20;1766.40;;;;;;5050549;28;20079;-55
2021/12/25 13:17:53;;;;;;;15.52;13.25;;;435.20;1766.40;;;;;;5050773;28;20021;-55
2021/12/25 13:20:35;;;;;;;25.23;22.70;;;435.30;1766.40;;;;;;5050404;28;20029;-55
2021/12/25 13:23:04;;;;;;;11.60;7.15;;;435.20;1740.80;;;;;;5050637;28;20033;-61
2021/12/25 13:25:30;;;;;;;18.95;15.02;;;410.50;1766.40;;;;;;5050704;28;20021;-55
2021/12/25 13:27:58;;;;;;;15.65;8.57;;;410.50;1766.40;;;;;;5050546;28;20056;-62
2021/12/25 13:30:25;;;;;;;12.38;10.25;;;410.50;1766.40;;;;;;5050361;28;20047;-55
2021/12/25 13:32:51;;;;;;;12.73;7.45;;;410.40;1792.00;;;;;;5050510;28;20482;-55
2021/12/25 13:35:21;;;;;;;19.45;13.02;;;410.30;1792.00;;;;;;5049976;28;20035;-55
2021/12/25 13:37:59;;;;;;;11.13;9.20;;;410.20;1817.60;;;;;;5049799;28;20028;-55
2021/12/25 13:40:25;;;;;;;11.00;9.50;;;410.20;1792.00;;;;;;5050342;28;20029;-55
2021/12/25 13:42:51;;;;;;;12.52;6.55;;;410.20;1792.00;;;;;;5050311;28;20033;-55
2021/12/25 13:45:20;;;;;;;8.18;5.97;;;410.20;1792.00;;;;;;5050164;28;20383;-55
2021/12/25 13:47:46;;;;;;;7.07;5.28;;;410.20;1817.60;;;;;;5050051;28;20368;-55